This is the latest recevied weather packets stored in our database for station/object K7JGC-9. If no packets are shown the sender has not sent any weather packets the latest 10 day(s).
| Time | Temp. | Humidity | Pressure | Rain* | Wind** | Luminosity | Snow |
|---|---|---|---|---|---|---|---|
| 1777826835 | 17.78° C | 79% | 1012.7 hPa | 0 mm | - | 53 W/m² | - |
| 1777825030 | 16.11° C | 84% | 1012.9 hPa | 0 mm | - | 35 W/m² | - |
| 1777823227 | 15° C | 91% | 1012.9 hPa | 0 mm | - | 25 W/m² | - |
| 1777821424 | 13.33° C | 97% | 1013 hPa | 0 mm | - | 23 W/m² | - |
| 1777819622 | 12.78° C | 97% | 1012.9 hPa | 0 mm | - | 19 W/m² | - |
| 1777817821 | 11.67° C | 97% | 1012.9 hPa | 0 mm | - | 25 W/m² | - |
| 1777816021 | 10.56° C | 96% | 1012.6 hPa | 0 mm | - | 16 W/m² | - |
| 1777814220 | 10.56° C | 96% | 1012.6 hPa | 0 mm | - | 5 W/m² | - |
| 1777812420 | 10.56° C | 95% | 1012.6 hPa | 0 mm | - | 0 W/m² | - |
| 1777810616 | 10.56° C | 95% | 1012.5 hPa | 0 mm | - | 0 W/m² | - |
| 1777808811 | 10.56° C | 95% | 1012.8 hPa | 0 mm | - | 0 W/m² | - |
| 1777807006 | 11.11° C | 94% | 1012.8 hPa | 0 mm | - | 0 W/m² | - |
| 1777805205 | 11.67° C | 94% | 1012.8 hPa | 0 mm | - | 0 W/m² | - |
| 1777803404 | 11.67° C | 93% | 1012.8 hPa | 0 mm | - | 0 W/m² | - |
| 1777801601 | 12.22° C | 93% | 1013 hPa | 0 mm | - | 0 W/m² | - |
| 1777799797 | 12.78° C | 93% | 1013 hPa | 0 mm | - | 0 W/m² | - |
| 1777797992 | 12.78° C | 92% | 1013 hPa | 0 mm | - | 0 W/m² | - |
| 1777796189 | 13.33° C | 92% | 1013.2 hPa | 0 mm | - | 0 W/m² | - |
| 1777794386 | 13.33° C | 90% | 1013.1 hPa | 0 mm | - | 0 W/m² | - |
| 1777792585 | 13.89° C | 89% | 1013.1 hPa | 0 mm | - | 0 W/m² | - |
| 1777790780 | 14.44° C | 88% | 1013.2 hPa | 0 mm | - | 0 W/m² | - |
| 1777788977 | 15° C | 88% | 1013.1 hPa | 0 mm | - | 0 W/m² | - |
| 1777787174 | 15° C | 85% | 1012.8 hPa | 0 mm | - | 0 W/m² | - |
| 1777785373 | 15.56° C | 82% | 1013.1 hPa | 0 mm | - | 0 W/m² | - |
| 1777783573 | 16.11° C | 80% | 1013.2 hPa | 0 mm | - | 0 W/m² | - |
* Rain latest hour (hover to see other rain measurements)
** Current wind speed in m/s (hover to see current wind gust speed)